Terminal Aerodrome Forecast
Issued by NWS Blacksburg, VA

Current Version | Previous Version | Graphics & Text | Print | Product List | Glossary On
Versions: 1 2 3 4 5 6 7 8 9 10 11 12 13 14 15 16 17 18 19 20 21 22 23 24 25
000
FTUS41 KRNK 201745
TAFBLF
TAF
KBLF 201745Z 2018/2118 30008KT P6SM SCT250
     FM202100 25005KT P6SM BKN045
     FM210100 23009KT 6SM -SHRA BKN025
     FM210500 25010KT 6SM -SHRA BKN015
     FM210900 27010KT 6SM -SHRA BKN008
     FM211200 31007KT P6SM BKN008=

USA.gov is the U.S. government's official web portal to all federal, state and local government web resources and services.